Aviation Digital Data Service (ADDS)

Output produced by TAFs form (1754 UTC 09 February 2016)
found at http://aviationweather.gov/adds/tafs/
 
KDMN 091731Z 0918/1018 10005KT P6SM SKC 
     FM100300 05006KT P6SM SKC